sensor_id;sensor_type;location;lat;lon;timestamp;pressure;altitude;pressure_sealevel;temperature;humidity
21980;BME280;11154;48.558;9.234;2023-02-12T00:01:14;99440.00;;;8.20;69.99
21980;BME280;11154;48.558;9.234;2023-02-12T00:03:15;99447.00;;;8.21;69.70
21980;BME280;11154;48.558;9.234;2023-02-12T00:05:17;99443.41;;;8.22;69.77
21980;BME280;11154;48.558;9.234;2023-02-12T00:07:18;99442.66;;;8.20;69.21
21980;BME280;11154;48.558;9.234;2023-02-12T00:09:20;99448.72;;;8.22;69.31
21980;BME280;11154;48.558;9.234;2023-02-12T00:11:23;99449.25;;;8.27;69.56
21980;BME280;11154;48.558;9.234;2023-02-12T00:13:25;99448.31;;;8.28;69.76
21980;BME280;11154;48.558;9.234;2023-02-12T00:15:27;99447.25;;;8.31;68.13
21980;BME280;11154;48.558;9.234;2023-02-12T00:17:30;99442.81;;;8.31;68.27
21980;BME280;11154;48.558;9.234;2023-02-12T00:19:31;99442.59;;;8.34;68.56
21980;BME280;11154;48.558;9.234;2023-02-12T00:21:33;99448.84;;;8.33;68.69
21980;BME280;11154;48.558;9.234;2023-02-12T00:23:37;99451.09;;;8.39;69.67
21980;BME280;11154;48.558;9.234;2023-02-12T00:25:41;99448.78;;;8.47;69.38
21980;BME280;11154;48.558;9.234;2023-02-12T00:27:42;99454.97;;;8.48;67.64
21980;BME280;11154;48.558;9.234;2023-02-12T00:29:44;99457.50;;;8.49;67.98
21980;BME280;11154;48.558;9.234;2023-02-12T00:31:46;99453.03;;;8.50;68.27
21980;BME280;11154;48.558;9.234;2023-02-12T00:33:49;99455.63;;;8.51;69.15
21980;BME280;11154;48.558;9.234;2023-02-12T00:35:55;99454.63;;;8.52;69.44
21980;BME280;11154;48.558;9.234;2023-02-12T00:37:57;99465.06;;;8.55;69.11
21980;BME280;11154;48.558;9.234;2023-02-12T00:39:59;99463.06;;;8.59;69.00
21980;BME280;11154;48.558;9.234;2023-02-12T00:42:00;99469.19;;;8.59;69.35
21980;BME280;11154;48.558;9.234;2023-02-12T00:44:02;99460.41;;;8.59;69.06
21980;BME280;11154;48.558;9.234;2023-02-12T00:46:04;99457.53;;;8.61;69.04
21980;BME280;11154;48.558;9.234;2023-02-12T00:48:06;99453.94;;;8.62;69.04
21980;BME280;11154;48.558;9.234;2023-02-12T00:50:09;99450.63;;;8.59;68.93
21980;BME280;11154;48.558;9.234;2023-02-12T00:52:11;99455.00;;;8.60;68.51
21980;BME280;11154;48.558;9.234;2023-02-12T00:54:13;99466.75;;;8.56;68.77
21980;BME280;11154;48.558;9.234;2023-02-12T00:56:15;99458.03;;;8.54;69.13
21980;BME280;11154;48.558;9.234;2023-02-12T00:58:16;99467.59;;;8.57;69.20
21980;BME280;11154;48.558;9.234;2023-02-12T01:00:18;99463.88;;;8.59;69.31
21980;BME280;11154;48.558;9.234;2023-02-12T01:02:20;99473.44;;;8.61;69.42
21980;BME280;11154;48.558;9.234;2023-02-12T01:04:21;99470.47;;;8.66;69.27
21980;BME280;11154;48.558;9.234;2023-02-12T01:06:25;99476.44;;;8.69;68.93
21980;BME280;11154;48.558;9.234;2023-02-12T01:08:26;99478.78;;;8.74;68.94
21980;BME280;11154;48.558;9.234;2023-02-12T01:10:29;99476.91;;;8.76;69.23
21980;BME280;11154;48.558;9.234;2023-02-12T01:12:31;99475.19;;;8.75;69.43
21980;BME280;11154;48.558;9.234;2023-02-12T01:14:33;99479.44;;;8.77;69.29
21980;BME280;11154;48.558;9.234;2023-02-12T01:16:35;99464.34;;;8.78;69.33
21980;BME280;11154;48.558;9.234;2023-02-12T01:18:37;99462.47;;;8.80;69.47
21980;BME280;11154;48.558;9.234;2023-02-12T01:20:38;99467.66;;;8.81;69.65
21980;BME280;11154;48.558;9.234;2023-02-12T01:22:42;99468.59;;;8.80;69.60
21980;BME280;11154;48.558;9.234;2023-02-12T01:24:43;99471.25;;;8.80;69.77
21980;BME280;11154;48.558;9.234;2023-02-12T01:26:45;99461.63;;;8.79;69.44
21980;BME280;11154;48.558;9.234;2023-02-12T01:28:49;99467.00;;;8.78;69.70
21980;BME280;11154;48.558;9.234;2023-02-12T01:30:51;99466.47;;;8.73;69.92
21980;BME280;11154;48.558;9.234;2023-02-12T01:32:52;99467.44;;;8.72;70.44
21980;BME280;11154;48.558;9.234;2023-02-12T01:34:54;99464.78;;;8.72;70.25
21980;BME280;11154;48.558;9.234;2023-02-12T01:36:56;99472.66;;;8.73;70.27
21980;BME280;11154;48.558;9.234;2023-02-12T01:38:59;99463.72;;;8.74;70.33
21980;BME280;11154;48.558;9.234;2023-02-12T01:41:03;99475.09;;;8.76;69.79
21980;BME280;11154;48.558;9.234;2023-02-12T01:43:05;99471.38;;;8.79;69.68
21980;BME280;11154;48.558;9.234;2023-02-12T01:47:48;99472.06;;;8.95;69.16
21980;BME280;11154;48.558;9.234;2023-02-12T01:49:49;99473.53;;;8.99;68.69
21980;BME280;11154;48.558;9.234;2023-02-12T01:51:54;99468.97;;;9.01;68.65
21980;BME280;11154;48.558;9.234;2023-02-12T01:54:04;99467.28;;;9.00;68.74
21980;BME280;11154;48.558;9.234;2023-02-12T01:56:08;99476.72;;;9.04;68.39
21980;BME280;11154;48.558;9.234;2023-02-12T01:58:10;99472.91;;;9.08;68.00
21980;BME280;11154;48.558;9.234;2023-02-12T02:00:14;99437.34;;;8.85;68.54
21980;BME280;11154;48.558;9.234;2023-02-12T02:02:16;99432.88;;;7.26;77.35
21980;BME280;11154;48.558;9.234;2023-02-12T02:04:21;99435.00;;;6.78;81.17
21980;BME280;11154;48.558;9.234;2023-02-12T02:06:27;99437.56;;;6.50;83.20
21980;BME280;11154;48.558;9.234;2023-02-12T02:08:30;99436.75;;;6.35;84.63
21980;BME280;11154;48.558;9.234;2023-02-12T02:10:33;99430.28;;;6.25;85.75
21980;BME280;11154;48.558;9.234;2023-02-12T02:12:35;99425.94;;;6.24;86.22
21980;BME280;11154;48.558;9.234;2023-02-12T02:14:56;99419.00;;;6.23;87.32
21980;BME280;11154;48.558;9.234;2023-02-12T02:17:12;99429.81;;;6.18;87.48
21980;BME280;11154;48.558;9.234;2023-02-12T02:19:26;99424.78;;;6.14;87.96
21980;BME280;11154;48.558;9.234;2023-02-12T02:21:44;99418.81;;;6.10;87.99
21980;BME280;11154;48.558;9.234;2023-02-12T02:24:03;99425.66;;;5.99;89.03
21980;BME280;11154;48.558;9.234;2023-02-12T02:26:52;99420.72;;;5.93;90.08
21980;BME280;11154;48.558;9.234;2023-02-12T02:29:12;99419.53;;;5.98;89.68
21980;BME280;11154;48.558;9.234;2023-02-12T02:31:25;99418.94;;;5.93;89.94
21980;BME280;11154;48.558;9.234;2023-02-12T02:33:36;99418.84;;;5.95;89.28
21980;BME280;11154;48.558;9.234;2023-02-12T02:35:45;99418.06;;;5.93;88.59
21980;BME280;11154;48.558;9.234;2023-02-12T02:37:53;99423.34;;;5.93;89.10
21980;BME280;11154;48.558;9.234;2023-02-12T02:40:01;99418.94;;;5.93;88.94
21980;BME280;11154;48.558;9.234;2023-02-12T02:42:08;99409.22;;;5.94;89.71
21980;BME280;11154;48.558;9.234;2023-02-12T02:44:16;99413.81;;;5.90;89.01
21980;BME280;11154;48.558;9.234;2023-02-12T02:46:27;99402.31;;;5.91;89.31
21980;BME280;11154;48.558;9.234;2023-02-12T02:48:33;99404.78;;;5.94;89.00
21980;BME280;11154;48.558;9.234;2023-02-12T02:50:39;99405.66;;;5.95;88.94
21980;BME280;11154;48.558;9.234;2023-02-12T02:52:47;99403.69;;;5.98;88.41
21980;BME280;11154;48.558;9.234;2023-02-12T02:54:53;99401.81;;;6.00;88.47
21980;BME280;11154;48.558;9.234;2023-02-12T02:56:59;99400.28;;;5.96;88.48
21980;BME280;11154;48.558;9.234;2023-02-12T02:59:06;99397.72;;;5.95;89.22
21980;BME280;11154;48.558;9.234;2023-02-12T03:01:10;99400.47;;;5.93;89.00
21980;BME280;11154;48.558;9.234;2023-02-12T03:03:19;99413.47;;;5.96;89.04
21980;BME280;11154;48.558;9.234;2023-02-12T03:05:24;99398.41;;;5.98;88.56
21980;BME280;11154;48.558;9.234;2023-02-12T03:07:30;99407.09;;;6.00;88.33
21980;BME280;11154;48.558;9.234;2023-02-12T03:09:36;99400.78;;;6.03;88.33
21980;BME280;11154;48.558;9.234;2023-02-12T03:11:39;99401.13;;;5.97;88.24
21980;BME280;11154;48.558;9.234;2023-02-12T03:13:44;99403.94;;;5.94;88.97
21980;BME280;11154;48.558;9.234;2023-02-12T03:15:52;99402.81;;;5.98;89.35
21980;BME280;11154;48.558;9.234;2023-02-12T03:18:17;99408.41;;;6.07;88.52
21980;BME280;11154;48.558;9.234;2023-02-12T03:20:22;99401.38;;;6.08;88.49
21980;BME280;11154;48.558;9.234;2023-02-12T03:22:28;99405.72;;;6.09;88.25
21980;BME280;11154;48.558;9.234;2023-02-12T03:24:35;99409.09;;;6.11;88.69
21980;BME280;11154;48.558;9.234;2023-02-12T03:26:41;99411.00;;;6.09;88.64
21980;BME280;11154;48.558;9.234;2023-02-12T03:28:44;99414.66;;;6.06;89.08
21980;BME280;11154;48.558;9.234;2023-02-12T03:30:49;99416.78;;;6.00;89.53
21980;BME280;11154;48.558;9.234;2023-02-12T03:32:56;99424.13;;;5.95;89.46
21980;BME280;11154;48.558;9.234;2023-02-12T03:35:07;99418.84;;;5.95;89.79
21980;BME280;11154;48.558;9.234;2023-02-12T03:37:12;99412.63;;;5.96;90.47
21980;BME280;11154;48.558;9.234;2023-02-12T03:39:19;99418.00;;;6.10;92.63
21980;BME280;11154;48.558;9.234;2023-02-12T03:41:28;99417.66;;;6.00;90.47
21980;BME280;11154;48.558;9.234;2023-02-12T03:43:41;99421.06;;;5.87;90.12
21980;BME280;11154;48.558;9.234;2023-02-12T03:45:49;99418.25;;;5.90;89.78
21980;BME280;11154;48.558;9.234;2023-02-12T03:47:58;99412.63;;;5.96;89.08
21980;BME280;11154;48.558;9.234;2023-02-12T03:50:08;99415.09;;;5.99;88.37
21980;BME280;11154;48.558;9.234;2023-02-12T03:52:11;99413.22;;;6.01;88.66
21980;BME280;11154;48.558;9.234;2023-02-12T03:54:15;99415.75;;;6.02;89.01
21980;BME280;11154;48.558;9.234;2023-02-12T03:56:23;99427.00;;;6.06;89.02
21980;BME280;11154;48.558;9.234;2023-02-12T03:58:27;99405.88;;;6.06;88.98
21980;BME280;11154;48.558;9.234;2023-02-12T04:00:30;99456.97;;;6.36;88.92
21980;BME280;11154;48.558;9.234;2023-02-12T04:02:32;99451.66;;;7.22;85.13
21980;BME280;11154;48.558;9.234;2023-02-12T04:04:35;99453.34;;;7.65;81.38
21980;BME280;11154;48.558;9.234;2023-02-12T04:06:39;99448.78;;;7.94;79.20
21980;BME280;11154;48.558;9.234;2023-02-12T04:08:41;99447.31;;;8.17;76.05
21980;BME280;11154;48.558;9.234;2023-02-12T04:10:55;99451.09;;;8.39;75.35
21980;BME280;11154;48.558;9.234;2023-02-12T04:13:09;99457.00;;;8.57;74.54
21980;BME280;11154;48.558;9.234;2023-02-12T04:17:35;99455.88;;;8.73;72.54
21980;BME280;11154;48.558;9.234;2023-02-12T04:19:49;99460.34;;;8.85;72.33
21980;BME280;11154;48.558;9.234;2023-02-12T04:22:10;99462.50;;;8.92;71.70
21980;BME280;11154;48.558;9.234;2023-02-12T04:24:18;99464.63;;;9.00;71.10
21980;BME280;11154;48.558;9.234;2023-02-12T04:26:23;99464.31;;;9.04;70.47
21980;BME280;11154;48.558;9.234;2023-02-12T04:28:33;99463.16;;;9.21;75.92
21980;BME280;11154;48.558;9.234;2023-02-12T04:30:40;99464.31;;;9.17;72.81
21980;BME280;11154;48.558;9.234;2023-02-12T04:32:47;99468.91;;;9.15;70.63
21980;BME280;11154;48.558;9.234;2023-02-12T04:34:56;99471.13;;;9.21;71.14
21980;BME280;11154;48.558;9.234;2023-02-12T04:37:04;99469.00;;;9.26;73.97
21980;BME280;11154;48.558;9.234;2023-02-12T04:39:10;99468.56;;;9.19;70.98
21980;BME280;11154;48.558;9.234;2023-02-12T04:41:15;99461.47;;;9.20;70.67
21980;BME280;11154;48.558;9.234;2023-02-12T04:43:26;99469.41;;;9.20;69.87
21980;BME280;11154;48.558;9.234;2023-02-12T04:45:29;99461.22;;;9.23;71.82
21980;BME280;11154;48.558;9.234;2023-02-12T04:47:32;99464.00;;;9.21;71.89
21980;BME280;11154;48.558;9.234;2023-02-12T04:49:34;99470.91;;;9.24;70.42
21980;BME280;11154;48.558;9.234;2023-02-12T04:51:35;99468.25;;;9.24;70.46
21980;BME280;11154;48.558;9.234;2023-02-12T04:53:38;99466.34;;;9.26;71.46
21980;BME280;11154;48.558;9.234;2023-02-12T04:55:40;99470.69;;;9.27;71.22
21980;BME280;11154;48.558;9.234;2023-02-12T04:57:42;99474.31;;;9.26;70.41
21980;BME280;11154;48.558;9.234;2023-02-12T04:59:44;99470.06;;;9.23;70.82
21980;BME280;11154;48.558;9.234;2023-02-12T05:01:45;99468.47;;;9.21;70.70
21980;BME280;11154;48.558;9.234;2023-02-12T05:03:47;99468.47;;;9.21;70.70
21980;BME280;11154;48.558;9.234;2023-02-12T05:05:49;99461.47;;;9.20;70.50
21980;BME280;11154;48.558;9.234;2023-02-12T05:07:50;99462.41;;;9.19;70.24
21980;BME280;11154;48.558;9.234;2023-02-12T05:09:53;99471.31;;;9.18;70.10
21980;BME280;11154;48.558;9.234;2023-02-12T05:11:55;99473.03;;;9.19;70.31
21980;BME280;11154;48.558;9.234;2023-02-12T05:13:57;99466.97;;;9.17;70.14
21980;BME280;11154;48.558;9.234;2023-02-12T05:15:59;99464.31;;;9.17;69.77
21980;BME280;11154;48.558;9.234;2023-02-12T05:18:02;99461.66;;;9.17;70.10
21980;BME280;11154;48.558;9.234;2023-02-12T05:20:05;99468.91;;;9.15;69.91
21980;BME280;11154;48.558;9.234;2023-02-12T05:22:07;99466.25;;;9.15;69.59
21980;BME280;11154;48.558;9.234;2023-02-12T05:24:08;99463.66;;;9.13;69.70
21980;BME280;11154;48.558;9.234;2023-02-12T05:26:13;99466.31;;;9.13;69.30
21980;BME280;11154;48.558;9.234;2023-02-12T05:28:14;99459.53;;;9.09;69.18
21980;BME280;11154;48.558;9.234;2023-02-12T05:30:16;99470.69;;;9.02;68.07
21980;BME280;11154;48.558;9.234;2023-02-12T05:32:18;99464.41;;;9.03;68.16
21980;BME280;11154;48.558;9.234;2023-02-12T05:34:19;99469.63;;;9.04;68.02
21980;BME280;11154;48.558;9.234;2023-02-12T05:36:22;99467.81;;;9.05;67.55
21980;BME280;11154;48.558;9.234;2023-02-12T05:38:24;99459.09;;;9.03;67.02
21980;BME280;11154;48.558;9.234;2023-02-12T05:40:26;99465.25;;;9.03;66.84
21980;BME280;11154;48.558;9.234;2023-02-12T05:42:29;99463.25;;;9.07;67.51
21980;BME280;11154;48.558;9.234;2023-02-12T05:44:30;99471.22;;;9.07;67.02
21980;BME280;11154;48.558;9.234;2023-02-12T05:46:32;99458.69;;;9.09;67.07
21980;BME280;11154;48.558;9.234;2023-02-12T05:48:34;99465.69;;;9.10;67.72
21980;BME280;11154;48.558;9.234;2023-02-12T05:50:36;99465.38;;;9.14;68.27
21980;BME280;11154;48.558;9.234;2023-02-12T05:52:38;99461.78;;;9.15;68.38
21980;BME280;11154;48.558;9.234;2023-02-12T05:54:39;99464.41;;;9.15;67.92
21980;BME280;11154;48.558;9.234;2023-02-12T05:56:42;99463.59;;;9.15;67.41
21980;BME280;11154;48.558;9.234;2023-02-12T05:58:47;99468.44;;;9.08;67.94
21980;BME280;11154;48.558;9.234;2023-02-12T06:00:49;99470.25;;;9.08;68.65
21980;BME280;11154;48.558;9.234;2023-02-12T06:02:51;99468.56;;;9.07;68.80
21980;BME280;11154;48.558;9.234;2023-02-12T06:04:52;99466.09;;;9.04;68.89
21980;BME280;11154;48.558;9.234;2023-02-12T06:06:55;99467.16;;;9.01;69.42
21980;BME280;11154;48.558;9.234;2023-02-12T06:08:57;99469.50;;;9.06;69.11
21980;BME280;11154;48.558;9.234;2023-02-12T06:11:00;99473.88;;;9.07;68.77
21980;BME280;11154;48.558;9.234;2023-02-12T06:13:02;99466.75;;;9.07;68.47
21980;BME280;11154;48.558;9.234;2023-02-12T06:15:06;99465.03;;;9.06;68.92
21980;BME280;11154;48.558;9.234;2023-02-12T06:17:08;99466.66;;;9.09;68.64
21980;BME280;11154;48.558;9.234;2023-02-12T06:19:09;99457.72;;;9.10;68.69
21980;BME280;11154;48.558;9.234;2023-02-12T06:21:11;99466.31;;;9.13;68.67
21980;BME280;11154;48.558;9.234;2023-02-12T06:23:13;99467.19;;;9.14;68.16
21980;BME280;11154;48.558;9.234;2023-02-12T06:25:15;99478.88;;;9.11;67.33
21980;BME280;11154;48.558;9.234;2023-02-12T06:27:17;99469.09;;;9.12;67.86
21980;BME280;11154;48.558;9.234;2023-02-12T06:29:20;99464.63;;;9.12;67.56
21980;BME280;11154;48.558;9.234;2023-02-12T06:31:25;99476.09;;;9.13;67.36
21980;BME280;11154;48.558;9.234;2023-02-12T06:33:27;99474.94;;;9.04;65.37
21980;BME280;11154;48.558;9.234;2023-02-12T06:35:28;99479.28;;;9.05;66.66
21980;BME280;11154;48.558;9.234;2023-02-12T06:37:30;99478.22;;;9.08;67.42
21980;BME280;11154;48.558;9.234;2023-02-12T06:39:37;99480.75;;;9.09;67.22
21980;BME280;11154;48.558;9.234;2023-02-12T06:41:38;99481.19;;;9.03;66.85
21980;BME280;11154;48.558;9.234;2023-02-12T06:43:40;99478.53;;;9.03;67.96
21980;BME280;11154;48.558;9.234;2023-02-12T06:45:41;99479.38;;;9.04;68.09
21980;BME280;11154;48.558;9.234;2023-02-12T06:47:44;99482.03;;;9.04;68.10
21980;BME280;11154;48.558;9.234;2023-02-12T06:49:46;99479.28;;;9.05;67.96
21980;BME280;11154;48.558;9.234;2023-02-12T06:51:48;99475.00;;;9.03;67.16
21980;BME280;11154;48.558;9.234;2023-02-12T06:53:50;99485.75;;;9.01;67.56
21980;BME280;11154;48.558;9.234;2023-02-12T06:55:52;99484.16;;;8.99;67.20
21980;BME280;11154;48.558;9.234;2023-02-12T06:57:53;99482.44;;;8.98;67.57
21980;BME280;11154;48.558;9.234;2023-02-12T06:59:55;99487.75;;;8.98;67.55
21980;BME280;11154;48.558;9.234;2023-02-12T07:01:57;99487.75;;;8.98;67.27
21980;BME280;11154;48.558;9.234;2023-02-12T07:04:01;99494.75;;;8.99;67.58
21980;BME280;11154;48.558;9.234;2023-02-12T07:06:03;99504.53;;;8.98;67.39
21980;BME280;11154;48.558;9.234;2023-02-12T07:08:04;99506.53;;;8.95;67.61
21980;BME280;11154;48.558;9.234;2023-02-12T07:10:07;99510.25;;;8.92;67.79
21980;BME280;11154;48.558;9.234;2023-02-12T07:12:09;99510.03;;;8.95;67.99
21980;BME280;11154;48.558;9.234;2023-02-12T07:14:13;99499.63;;;8.92;67.91
21980;BME280;11154;48.558;9.234;2023-02-12T07:16:15;99502.38;;;8.91;68.03
21980;BME280;11154;48.558;9.234;2023-02-12T07:18:17;99505.91;;;8.91;68.06
21980;BME280;11154;48.558;9.234;2023-02-12T07:20:20;99504.31;;;8.89;67.63
21980;BME280;11154;48.558;9.234;2023-02-12T07:22:22;99511.50;;;8.87;68.45
21980;BME280;11154;48.558;9.234;2023-02-12T07:24:23;99502.59;;;8.88;68.90
21980;BME280;11154;48.558;9.234;2023-02-12T07:26:25;99511.31;;;8.90;69.09
21980;BME280;11154;48.558;9.234;2023-02-12T07:28:27;99515.84;;;8.88;68.86
21980;BME280;11154;48.558;9.234;2023-02-12T07:30:32;99518.41;;;8.89;69.00
21980;BME280;11154;48.558;9.234;2023-02-12T07:32:34;99503.34;;;8.90;69.01
21980;BME280;11154;48.558;9.234;2023-02-12T07:34:35;99514.03;;;8.88;69.27
21980;BME280;11154;48.558;9.234;2023-02-12T07:36:38;99506.09;;;8.88;69.72
21980;BME280;11154;48.558;9.234;2023-02-12T07:38:41;99509.03;;;8.84;70.14
21980;BME280;11154;48.558;9.234;2023-02-12T07:40:43;99512.44;;;8.86;70.20
21980;BME280;11154;48.558;9.234;2023-02-12T07:42:45;99515.09;;;8.86;70.49
21980;BME280;11154;48.558;9.234;2023-02-12T07:44:52;99519.47;;;8.87;70.61
21980;BME280;11154;48.558;9.234;2023-02-12T07:46:54;99518.22;;;8.92;70.34
21980;BME280;11154;48.558;9.234;2023-02-12T07:48:56;99508.25;;;8.96;70.60
21980;BME280;11154;48.558;9.234;2023-02-12T07:51:02;99520.47;;;8.98;70.94
21980;BME280;11154;48.558;9.234;2023-02-12T07:53:05;99515.03;;;9.00;70.36
21980;BME280;11154;48.558;9.234;2023-02-12T07:55:07;99507.59;;;9.05;70.94
21980;BME280;11154;48.558;9.234;2023-02-12T07:57:09;99501.16;;;9.09;70.80
21980;BME280;11154;48.558;9.234;2023-02-12T07:59:12;99501.16;;;9.09;69.86
21980;BME280;11154;48.558;9.234;2023-02-12T08:01:16;99501.88;;;9.11;69.66
21980;BME280;11154;48.558;9.234;2023-02-12T08:03:18;99500.09;;;9.11;69.36
21980;BME280;11154;48.558;9.234;2023-02-12T08:05:20;99507.84;;;9.14;69.33
21980;BME280;11154;48.558;9.234;2023-02-12T08:07:22;99505.00;;;9.17;69.85
21980;BME280;11154;48.558;9.234;2023-02-12T08:09:26;99502.88;;;9.22;69.91
21980;BME280;11154;48.558;9.234;2023-02-12T08:11:30;99503.69;;;9.23;70.64
21980;BME280;11154;48.558;9.234;2023-02-12T08:13:33;99508.94;;;9.24;70.76
21980;BME280;11154;48.558;9.234;2023-02-12T08:15:34;99507.03;;;9.38;69.89
21980;BME280;11154;48.558;9.234;2023-02-12T08:17:36;99507.34;;;9.46;69.77
21980;BME280;11154;48.558;9.234;2023-02-12T08:19:38;99503.28;;;9.41;69.43
21980;BME280;11154;48.558;9.234;2023-02-12T08:21:39;99503.91;;;9.32;69.66
21980;BME280;11154;48.558;9.234;2023-02-12T08:23:41;99504.16;;;9.29;70.08
21980;BME280;11154;48.558;9.234;2023-02-12T08:25:44;99496.59;;;9.35;69.91
21980;BME280;11154;48.558;9.234;2023-02-12T08:27:45;99505.66;;;9.45;70.07
21980;BME280;11154;48.558;9.234;2023-02-12T08:29:47;99504.47;;;9.49;69.61
21980;BME280;11154;48.558;9.234;2023-02-12T08:31:50;99510.22;;;9.56;70.11
21980;BME280;11154;48.558;9.234;2023-02-12T08:33:56;99503.59;;;9.61;69.91
21980;BME280;11154;48.558;9.234;2023-02-12T08:36:02;99495.22;;;9.55;70.58
21980;BME280;11154;48.558;9.234;2023-02-12T08:38:04;99502.56;;;9.51;71.63
21980;BME280;11154;48.558;9.234;2023-02-12T08:40:06;99494.91;;;9.47;71.41
21980;BME280;11154;48.558;9.234;2023-02-12T08:42:09;99495.84;;;9.46;71.59
21980;BME280;11154;48.558;9.234;2023-02-12T08:44:12;99496.72;;;9.46;72.19
21980;BME280;11154;48.558;9.234;2023-02-12T08:46:16;99489.28;;;9.51;71.39
21980;BME280;11154;48.558;9.234;2023-02-12T08:48:18;99489.06;;;9.54;70.89
21980;BME280;11154;48.558;9.234;2023-02-12T08:50:20;99489.06;;;9.54;70.47
21980;BME280;11154;48.558;9.234;2023-02-12T08:52:21;99496.69;;;9.59;70.67
21980;BME280;11154;48.558;9.234;2023-02-12T08:54:25;99488.31;;;9.65;70.74
21980;BME280;11154;48.558;9.234;2023-02-12T08:56:28;99494.06;;;9.71;70.14
21980;BME280;11154;48.558;9.234;2023-02-12T08:58:31;99495.53;;;9.75;70.30
21980;BME280;11154;48.558;9.234;2023-02-12T09:00:33;99491.78;;;9.78;70.27
21980;BME280;11154;48.558;9.234;2023-02-12T09:02:34;99489.78;;;9.81;69.32
21980;BME280;11154;48.558;9.234;2023-02-12T09:04:36;99490.72;;;9.80;69.09
21980;BME280;11154;48.558;9.234;2023-02-12T09:06:38;99494.25;;;9.81;69.12
21980;BME280;11154;48.558;9.234;2023-02-12T09:08:39;99488.63;;;9.85;68.63
21980;BME280;11154;48.558;9.234;2023-02-12T09:10:42;99486.69;;;9.87;68.40
21980;BME280;11154;48.558;9.234;2023-02-12T09:12:43;99485.59;;;9.90;68.73
21980;BME280;11154;48.558;9.234;2023-02-12T09:14:46;99483.16;;;9.99;68.40
21980;BME280;11154;48.558;9.234;2023-02-12T09:16:48;99486.03;;;9.96;69.04
21980;BME280;11154;48.558;9.234;2023-02-12T09:18:51;99493.50;;;9.91;69.02
21980;BME280;11154;48.558;9.234;2023-02-12T09:20:53;99495.16;;;9.92;69.69
21980;BME280;11154;48.558;9.234;2023-02-12T09:22:56;99494.97;;;9.95;70.03
21980;BME280;11154;48.558;9.234;2023-02-12T09:24:58;99490.44;;;9.97;70.04
21980;BME280;11154;48.558;9.234;2023-02-12T09:27:00;99495.50;;;10.00;70.20
21980;BME280;11154;48.558;9.234;2023-02-12T09:29:02;99490.81;;;10.04;70.34
21980;BME280;11154;48.558;9.234;2023-02-12T09:31:07;99496.66;;;10.08;70.97
21980;BME280;11154;48.558;9.234;2023-02-12T09:33:09;99498.97;;;10.13;70.94
21980;BME280;11154;48.558;9.234;2023-02-12T09:35:11;99498.34;;;10.22;70.96
21980;BME280;11154;48.558;9.234;2023-02-12T09:37:13;99499.59;;;10.29;71.10
21980;BME280;11154;48.558;9.234;2023-02-12T09:39:15;99493.81;;;10.35;71.09
21980;BME280;11154;48.558;9.234;2023-02-12T09:41:35;99491.66;;;10.40;70.41
21980;BME280;11154;48.558;9.234;2023-02-12T09:43:41;99490.38;;;10.45;70.71
21980;BME280;11154;48.558;9.234;2023-02-12T09:45:50;99492.59;;;10.51;70.36
21980;BME280;11154;48.558;9.234;2023-02-12T09:48:00;99498.53;;;10.55;70.42
21980;BME280;11154;48.558;9.234;2023-02-12T09:50:16;99500.84;;;10.59;70.74
21980;BME280;11154;48.558;9.234;2023-02-12T09:52:25;99499.66;;;10.63;70.48
21980;BME280;11154;48.558;9.234;2023-02-12T09:54:34;99497.50;;;10.68;70.30
21980;BME280;11154;48.558;9.234;2023-02-12T09:56:40;99503.19;;;10.75;70.44
21980;BME280;11154;48.558;9.234;2023-02-12T09:58:47;99500.53;;;10.75;70.52
21980;BME280;11154;48.558;9.234;2023-02-12T10:00:50;99503.72;;;10.79;70.49
21980;BME280;11154;48.558;9.234;2023-02-12T10:02:52;99497.22;;;10.83;70.72
21980;BME280;11154;48.558;9.234;2023-02-12T10:04:55;99495.91;;;10.89;71.17
21980;BME280;11154;48.558;9.234;2023-02-12T10:07:04;99504.59;;;10.91;70.43
21980;BME280;11154;48.558;9.234;2023-02-12T10:09:24;99505.22;;;10.94;70.22
21980;BME280;11154;48.558;9.234;2023-02-12T10:11:49;99506.72;;;10.98;70.17
21980;BME280;11154;48.558;9.234;2023-02-12T10:14:04;99507.53;;;10.99;69.96
21980;BME280;11154;48.558;9.234;2023-02-12T10:16:16;99492.94;;;11.04;70.26
21980;BME280;11154;48.558;9.234;2023-02-12T10:18:38;99493.44;;;11.09;70.05
21980;BME280;11154;48.558;9.234;2023-02-12T10:20:51;99493.91;;;11.14;70.17
21980;BME280;11154;48.558;9.234;2023-02-12T10:23:02;99498.28;;;11.15;70.30
21980;BME280;11154;48.558;9.234;2023-02-12T10:25:19;99498.28;;;11.15;70.88
21980;BME280;11154;48.558;9.234;2023-02-12T10:27:35;99494.19;;;11.22;70.65
21980;BME280;11154;48.558;9.234;2023-02-12T10:29:39;99492.97;;;11.26;70.54
21980;BME280;11154;48.558;9.234;2023-02-12T10:31:44;99490.09;;;11.29;70.17
21980;BME280;11154;48.558;9.234;2023-02-12T10:33:48;99491.78;;;11.30;70.63
21980;BME280;11154;48.558;9.234;2023-02-12T10:35:54;99488.25;;;11.30;70.35
21980;BME280;11154;48.558;9.234;2023-02-12T10:38:00;99486.47;;;11.30;71.10
21980;BME280;11154;48.558;9.234;2023-02-12T10:40:14;99486.22;;;11.33;70.86
21980;BME280;11154;48.558;9.234;2023-02-12T10:42:21;99478.56;;;11.29;70.47
21980;BME280;11154;48.558;9.234;2023-02-12T10:44:26;99481.75;;;11.34;70.80
21980;BME280;11154;48.558;9.234;2023-02-12T10:46:29;99477.66;;;11.41;70.56
21980;BME280;11154;48.558;9.234;2023-02-12T10:48:34;99467.59;;;11.44;70.14
21980;BME280;11154;48.558;9.234;2023-02-12T10:50:48;99469.28;;;11.45;69.59
21980;BME280;11154;48.558;9.234;2023-02-12T10:52:53;99471.09;;;11.45;70.09
21980;BME280;11154;48.558;9.234;2023-02-12T10:54:56;99468.19;;;11.48;70.07
21980;BME280;11154;48.558;9.234;2023-02-12T10:56:58;99469.91;;;11.48;69.97
21980;BME280;11154;48.558;9.234;2023-02-12T10:59:00;99463.28;;;11.54;70.21
21980;BME280;11154;48.558;9.234;2023-02-12T11:01:02;99468.47;;;11.55;69.83
21980;BME280;11154;48.558;9.234;2023-02-12T11:03:18;99460.25;;;11.58;70.06
21980;BME280;11154;48.558;9.234;2023-02-12T11:05:22;99450.22;;;11.62;69.86
21980;BME280;11154;48.558;9.234;2023-02-12T11:07:25;99457.47;;;11.60;69.92
21980;BME280;11154;48.558;9.234;2023-02-12T11:09:33;99458.22;;;11.62;69.73
21980;BME280;11154;48.558;9.234;2023-02-12T11:11:37;99453.84;;;11.61;69.55
21980;BME280;11154;48.558;9.234;2023-02-12T11:13:41;99446.59;;;11.63;69.49